createdAt,value
2018-05-12T00:00:55.785Z,75.59
2018-05-12T00:03:24.206Z,75.64
2018-05-12T00:05:52.599Z,75.60
2018-05-12T00:08:21.626Z,76.09
2018-05-12T00:10:49.885Z,76.38
2018-05-12T00:13:18.189Z,76.73
2018-05-12T00:15:47.230Z,77.43
2018-05-12T00:18:15.482Z,77.56
2018-05-12T00:20:44.515Z,77.62
2018-05-12T00:23:12.802Z,77.34
2018-05-12T00:25:41.056Z,77.41
2018-05-12T00:28:09.331Z,77.54
2018-05-12T00:30:37.629Z,77.56
2018-05-12T00:33:05.886Z,77.73
2018-05-12T00:35:34.149Z,78.21
2018-05-12T00:38:02.440Z,78.08
2018-05-12T00:40:30.688Z,77.93
2018-05-12T00:42:59.095Z,78.07
2018-05-12T00:45:27.331Z,78.55
2018-05-12T00:47:55.586Z,78.35
2018-05-12T00:50:23.883Z,78.55
2018-05-12T00:52:52.138Z,78.58
2018-05-12T00:55:20.384Z,78.79
2018-05-12T00:57:48.718Z,79.02
2018-05-12T01:00:17.002Z,78.63
2018-05-12T01:02:46.017Z,78.99
2018-05-12T01:05:14.304Z,79.32
2018-05-12T01:07:42.552Z,79.63
2018-05-12T01:10:10.814Z,79.85
2018-05-12T01:12:39.885Z,80.00
2018-05-12T01:15:08.140Z,80.71
2018-05-12T01:17:36.464Z,80.23
2018-05-12T01:20:05.512Z,80.90
2018-05-12T01:22:33.765Z,81.45
2018-05-12T01:25:02.017Z,81.27
2018-05-12T01:27:30.284Z,81.09
2018-05-12T01:29:59.304Z,80.65
2018-05-12T01:32:27.651Z,81.31
2018-05-12T01:34:56.704Z,81.96
2018-05-12T01:37:25.732Z,83.33
2018-05-12T01:39:53.995Z,82.97
2018-05-12T01:42:22.274Z,83.32
2018-05-12T01:44:50.536Z,84.11
2018-05-12T01:47:18.781Z,83.30
2018-05-12T01:49:47.056Z,82.92
2018-05-12T01:52:15.314Z,82.63
2018-05-12T01:54:43.572Z,82.77
2018-05-12T01:57:12.609Z,82.67
2018-05-12T01:59:40.868Z,82.59
2018-05-12T02:02:09.114Z,83.51
2018-05-12T02:04:38.151Z,83.03
2018-05-12T02:07:06.398Z,83.77
2018-05-12T02:09:35.417Z,83.76
2018-05-12T02:12:03.716Z,84.49
2018-05-12T02:14:31.976Z,83.73
2018-05-12T02:17:00.224Z,83.16
2018-05-12T02:19:28.494Z,82.99
2018-05-12T02:21:56.754Z,82.74
2018-05-12T02:24:25.017Z,82.65
2018-05-12T02:26:53.326Z,83.33
2018-05-12T02:29:21.658Z,82.76
2018-05-12T02:31:50.684Z,82.81
2018-05-12T02:34:18.986Z,83.13
2018-05-12T02:36:47.285Z,82.49
2018-05-12T02:39:15.577Z,82.73
2018-05-12T02:41:43.850Z,82.61
2018-05-12T02:44:12.110Z,83.37
2018-05-12T02:46:40.385Z,84.69
2018-05-12T02:49:08.686Z,84.23
2018-05-12T02:51:36.930Z,83.98
2018-05-12T02:54:05.190Z,84.43
2018-05-12T02:56:33.495Z,84.37
2018-05-12T02:59:01.826Z,84.54
2018-05-12T03:01:30.101Z,85.07
2018-05-12T03:03:58.382Z,84.92
2018-05-12T03:06:26.695Z,84.28
2018-05-12T03:08:54.962Z,84.43
2018-05-12T03:11:23.225Z,85.10
2018-05-12T03:13:51.478Z,85.71
2018-05-12T03:16:19.731Z,86.00
2018-05-12T03:18:48.001Z,86.26
2018-05-12T03:21:16.268Z,86.01
2018-05-12T03:23:44.521Z,86.18
2018-05-12T03:26:12.790Z,85.57
2018-05-12T03:28:41.079Z,85.41
2018-05-12T03:31:09.365Z,84.84
2018-05-12T03:33:37.630Z,85.66
2018-05-12T03:36:05.889Z,85.50
2018-05-12T03:38:34.172Z,85.75
2018-05-12T03:41:02.473Z,86.75
2018-05-12T03:43:30.724Z,86.64
2018-05-12T03:45:58.992Z,86.51
2018-05-12T03:48:27.272Z,86.50
2018-05-12T03:50:55.546Z,85.86
2018-05-12T03:53:23.793Z,85.97
2018-05-12T03:55:52.070Z,86.50
2018-05-12T03:58:20.340Z,86.85
2018-05-12T04:00:48.609Z,86.32
2018-05-12T04:03:16.913Z,85.96
2018-05-12T04:06:03.451Z,85.49
2018-05-12T04:08:50.182Z,85.60
2018-05-12T04:11:35.966Z,86.28
2018-05-12T04:14:05.022Z,86.35
2018-05-12T04:16:33.331Z,86.79
2018-05-12T04:19:01.594Z,86.88
2018-05-12T04:21:29.869Z,86.80
2018-05-12T04:23:58.160Z,86.56
2018-05-12T04:26:26.414Z,85.74
2018-05-12T04:28:54.695Z,85.83
2018-05-12T04:31:23.080Z,85.67
2018-05-12T04:33:51.476Z,86.05
2018-05-12T04:36:19.721Z,85.92
2018-05-12T04:38:47.977Z,86.24
2018-05-12T04:41:16.989Z,86.43
2018-05-12T04:43:45.278Z,86.89
2018-05-12T04:46:13.538Z,86.01
2018-05-12T04:48:41.840Z,85.13
2018-05-12T04:51:10.095Z,84.63
2018-05-12T04:53:38.357Z,84.45
2018-05-12T04:56:07.392Z,83.81
2018-05-12T04:58:35.661Z,83.58
2018-05-12T05:01:03.953Z,84.16
2018-05-12T05:03:32.212Z,83.36
2018-05-12T05:06:00.501Z,83.49
2018-05-12T05:08:28.765Z,83.42
2018-05-12T05:10:57.074Z,83.38
2018-05-12T05:13:25.375Z,83.39
2018-05-12T05:15:53.617Z,83.80
2018-05-12T05:18:21.867Z,83.18
2018-05-12T05:20:50.141Z,82.71
2018-05-12T05:23:18.397Z,82.30
2018-05-12T05:25:46.694Z,81.99
2018-05-12T05:28:16.089Z,82.08
2018-05-12T05:30:44.420Z,81.54
2018-05-12T05:33:12.667Z,80.80
2018-05-12T05:35:40.944Z,80.43
2018-05-12T05:38:09.220Z,80.07
2018-05-12T05:40:37.482Z,79.73
2018-05-12T05:43:05.745Z,79.83
2018-05-12T05:45:33.997Z,79.65
2018-05-12T05:48:03.015Z,79.59
2018-05-12T05:50:31.286Z,79.30
2018-05-12T05:52:59.536Z,79.75
2018-05-12T05:55:28.578Z,79.49
2018-05-12T05:57:56.896Z,79.29
2018-05-12T06:00:25.145Z,78.53
2018-05-12T06:02:54.161Z,77.96
2018-05-12T06:05:22.425Z,78.06
2018-05-12T06:07:50.677Z,78.36
2018-05-12T06:10:18.933Z,77.82
2018-05-12T06:12:47.193Z,77.60
2018-05-12T06:15:16.305Z,77.48
2018-05-12T06:17:44.548Z,77.25
2018-05-12T06:20:13.578Z,77.19
2018-05-12T06:22:41.825Z,76.59
2018-05-12T06:25:10.843Z,76.19
2018-05-12T06:27:39.112Z,76.27
2018-05-12T06:30:07.361Z,75.57
2018-05-12T06:32:35.609Z,75.94
2018-05-12T06:35:03.885Z,75.40
2018-05-12T06:37:32.208Z,75.60
2018-05-12T06:40:01.228Z,74.31
2018-05-12T06:42:29.489Z,74.45
2018-05-12T06:44:57.754Z,74.59
2018-05-12T06:47:26.768Z,75.00
2018-05-12T06:49:55.034Z,75.04
2018-05-12T06:52:23.291Z,74.29
2018-05-12T06:54:52.307Z,72.66
2018-05-12T06:57:20.579Z,72.14
2018-05-12T06:59:48.827Z,71.55
2018-05-12T07:02:17.849Z,71.26
2018-05-12T07:04:46.119Z,72.54
2018-05-12T07:07:14.381Z,72.93
2018-05-12T07:09:43.396Z,71.81
2018-05-12T07:12:11.661Z,71.01
2018-05-12T07:14:39.953Z,70.18
2018-05-12T07:17:08.213Z,69.50
2018-05-12T07:19:37.253Z,69.20
2018-05-12T07:22:05.503Z,68.75
2018-05-12T07:24:33.765Z,70.31
2018-05-12T07:27:02.841Z,70.14
2018-05-12T07:29:31.944Z,69.71
2018-05-12T07:32:00.124Z,70.02
2018-05-12T07:34:28.392Z,69.36
2018-05-12T07:36:57.414Z,70.94
2018-05-12T07:39:25.707Z,69.75
2018-05-12T07:41:54.698Z,68.25
2018-05-12T07:44:22.953Z,70.00
2018-05-12T07:46:51.237Z,72.40
2018-05-12T07:49:19.506Z,70.70
2018-05-12T07:51:47.756Z,69.70
2018-05-12T07:54:16.774Z,69.15
2018-05-12T07:56:45.041Z,67.94
2018-05-12T07:59:13.305Z,67.06
2018-05-12T08:01:42.321Z,67.68
2018-05-12T08:04:10.597Z,66.98
2018-05-12T08:06:38.868Z,67.14
2018-05-12T08:09:07.129Z,67.58
2018-05-12T08:11:36.184Z,66.76
2018-05-12T08:14:05.208Z,66.77
2018-05-12T08:16:33.454Z,66.33
2018-05-12T08:19:01.731Z,65.95
2018-05-12T08:21:29.977Z,67.29
2018-05-12T08:23:58.229Z,66.23
2018-05-12T08:26:26.504Z,63.82
2018-05-12T08:28:54.781Z,63.08
2018-05-12T08:31:23.029Z,63.18
2018-05-12T08:33:51.352Z,63.35
2018-05-12T08:36:19.597Z,62.60
2018-05-12T08:38:48.625Z,63.02
2018-05-12T08:41:16.897Z,62.34
2018-05-12T08:43:45.153Z,62.06
2018-05-12T08:46:14.177Z,61.13
2018-05-12T08:48:42.452Z,59.73
2018-05-12T08:51:10.745Z,58.56
2018-05-12T08:53:39.006Z,55.69
2018-05-12T08:56:07.277Z,56.58
2018-05-12T08:58:35.536Z,50.67
2018-05-12T09:01:03.784Z,52.34
2018-05-12T09:03:32.833Z,53.24
2018-05-12T09:06:01.076Z,53.96
2018-05-12T09:08:30.125Z,48.38
2018-05-12T09:10:58.390Z,46.28
2018-05-12T09:13:26.651Z,45.73
2018-05-12T09:15:54.896Z,45.13
2018-05-12T09:18:23.938Z,43.91
2018-05-12T09:20:52.190Z,45.75
2018-05-12T09:23:20.481Z,42.93
2018-05-12T09:25:48.772Z,46.11
2018-05-12T09:28:17.020Z,44.73
2018-05-12T09:30:45.276Z,43.93
2018-05-12T09:33:13.556Z,45.88
2018-05-12T09:35:41.830Z,44.92
2018-05-12T09:38:10.080Z,46.01
2018-05-12T09:40:38.356Z,46.04
2018-05-12T09:43:06.639Z,48.95
2018-05-12T09:45:35.669Z,50.36
2018-05-12T09:48:03.937Z,50.32
2018-05-12T09:50:32.186Z,49.09
2018-05-12T09:53:01.220Z,49.58
2018-05-12T09:55:29.492Z,49.51
2018-05-12T09:57:57.752Z,50.49
2018-05-12T10:00:26.005Z,50.79
2018-05-12T10:02:55.049Z,50.68
2018-05-12T10:05:23.300Z,50.14
2018-05-12T10:07:51.552Z,48.56
2018-05-12T10:10:20.613Z,47.39
2018-05-12T10:12:48.953Z,48.13
2018-05-12T10:15:17.121Z,45.04
2018-05-12T10:17:45.386Z,46.36
2018-05-12T10:20:14.402Z,44.21
2018-05-12T10:22:42.653Z,46.12
2018-05-12T10:25:11.685Z,45.89
2018-05-12T10:27:39.944Z,42.61
2018-05-12T10:30:08.201Z,43.61
2018-05-12T10:32:37.236Z,43.12
2018-05-12T10:35:05.493Z,41.76
2018-05-12T10:37:33.744Z,41.34
2018-05-12T10:40:02.870Z,42.05
2018-05-12T10:42:31.142Z,45.57
2018-05-12T10:44:59.396Z,47.46
2018-05-12T10:47:28.589Z,45.78
2018-05-12T10:49:57.634Z,45.82
2018-05-12T10:52:25.989Z,44.58
2018-05-12T10:54:54.266Z,44.34
2018-05-12T10:57:22.529Z,45.58
2018-05-12T10:59:50.782Z,44.23
2018-05-12T11:02:19.841Z,44.94
2018-05-12T11:04:48.100Z,44.92
2018-05-12T11:07:16.358Z,46.15
2018-05-12T11:09:44.739Z,46.66
2018-05-12T11:12:12.888Z,45.53
2018-05-12T11:14:41.940Z,44.32
2018-05-12T11:17:10.210Z,45.42
2018-05-12T11:19:38.464Z,45.44
2018-05-12T11:22:06.712Z,44.27
2018-05-12T11:24:35.752Z,41.83
2018-05-12T11:27:04.061Z,41.10
2018-05-12T11:29:32.379Z,43.08
2018-05-12T11:32:00.645Z,41.73
2018-05-12T11:34:28.898Z,42.82
2018-05-12T11:36:57.233Z,42.63
2018-05-12T11:39:25.537Z,41.91
2018-05-12T11:41:53.747Z,42.25
2018-05-12T11:44:22.863Z,42.01
2018-05-12T11:46:51.138Z,41.97
2018-05-12T11:49:19.393Z,41.73
2018-05-12T11:51:48.418Z,38.99
2018-05-12T11:54:16.681Z,39.70
2018-05-12T11:56:44.940Z,39.56
2018-05-12T11:59:13.969Z,40.59
2018-05-12T12:01:42.302Z,39.03
2018-05-12T12:04:11.322Z,38.46
2018-05-12T12:06:39.618Z,38.08
2018-05-12T12:09:07.932Z,38.65
2018-05-12T12:11:36.188Z,40.39
2018-05-12T12:14:04.533Z,39.09
2018-05-12T12:16:32.873Z,40.64
2018-05-12T12:19:01.052Z,39.72
2018-05-12T12:21:30.098Z,39.61
2018-05-12T12:23:58.362Z,39.94
2018-05-12T12:26:26.616Z,40.22
2018-05-12T12:28:54.873Z,39.18
2018-05-12T12:31:23.905Z,39.99
2018-05-12T12:33:52.203Z,39.36
2018-05-12T12:36:20.454Z,39.57
2018-05-12T12:38:48.728Z,39.11
2018-05-12T12:41:16.981Z,38.26
2018-05-12T12:43:46.095Z,38.08
2018-05-12T12:46:14.373Z,39.32
2018-05-12T12:48:42.632Z,38.14
2018-05-12T12:51:11.729Z,39.08
2018-05-12T12:53:39.997Z,39.30
2018-05-12T12:56:09.110Z,38.27
2018-05-12T12:58:37.370Z,38.40
2018-05-12T13:01:06.484Z,38.84
2018-05-12T13:03:34.773Z,38.67
2018-05-12T13:06:03.037Z,39.82
2018-05-12T13:08:31.334Z,37.32
2018-05-12T13:10:59.640Z,38.55
2018-05-12T13:13:28.000Z,38.09
2018-05-12T13:15:56.315Z,37.33
2018-05-12T13:18:25.661Z,35.90
2018-05-12T13:20:53.917Z,37.65
2018-05-12T13:23:23.023Z,36.62
2018-05-12T13:25:51.268Z,35.86
2018-05-12T13:28:20.389Z,37.69
2018-05-12T13:30:48.658Z,35.59
2018-05-12T13:33:16.913Z,37.41
2018-05-12T13:35:45.194Z,35.44
2018-05-12T13:38:13.454Z,34.09
2018-05-12T13:40:41.708Z,32.48
2018-05-12T13:43:09.966Z,31.36
2018-05-12T13:45:38.277Z,30.83
2018-05-12T13:48:06.496Z,30.07
2018-05-12T13:50:34.749Z,29.87
2018-05-12T13:53:03.869Z,29.60
2018-05-12T13:55:32.124Z,28.91
2018-05-12T13:58:01.249Z,28.30
2018-05-12T14:00:29.525Z,27.84
2018-05-12T14:02:57.772Z,28.28
2018-05-12T14:05:26.784Z,27.94
2018-05-12T14:07:55.057Z,28.14
2018-05-12T14:10:23.344Z,26.88
2018-05-12T14:12:51.591Z,26.76
2018-05-12T14:15:20.661Z,27.46
2018-05-12T14:17:48.994Z,26.93
2018-05-12T14:20:17.267Z,26.78
2018-05-12T14:22:45.541Z,26.94
2018-05-12T14:25:13.801Z,25.54
2018-05-12T14:27:42.821Z,25.54
2018-05-12T14:30:11.192Z,24.99
2018-05-12T14:32:39.441Z,25.12
2018-05-12T14:35:08.452Z,25.32
2018-05-12T14:37:36.718Z,25.96
2018-05-12T14:40:05.764Z,24.52
2018-05-12T14:42:34.025Z,25.25
2018-05-12T14:45:02.388Z,25.94
2018-05-12T14:47:30.642Z,25.97
2018-05-12T14:49:59.663Z,24.12
2018-05-12T14:52:27.926Z,24.42
2018-05-12T14:54:56.178Z,26.05
2018-05-12T14:57:25.184Z,23.52
2018-05-12T14:59:54.293Z,25.50
2018-05-12T15:02:22.624Z,24.78
2018-05-12T15:04:50.825Z,23.99
2018-05-12T15:07:19.864Z,25.06
2018-05-12T15:09:48.226Z,22.72
2018-05-12T15:12:16.521Z,23.26
2018-05-12T15:14:44.835Z,23.78
2018-05-12T15:17:13.024Z,25.37
2018-05-12T15:19:42.051Z,24.21
2018-05-12T15:22:10.313Z,23.66
2018-05-12T15:24:38.566Z,25.46
2018-05-12T15:27:07.690Z,26.24
2018-05-12T15:29:35.968Z,26.15
2018-05-12T15:32:04.250Z,26.32
2018-05-12T15:34:32.517Z,26.51
2018-05-12T15:37:00.789Z,25.58
2018-05-12T15:39:29.175Z,26.91
2018-05-12T15:41:57.453Z,27.61
2018-05-12T15:44:25.721Z,27.58
2018-05-12T15:46:53.973Z,27.50
2018-05-12T15:49:22.287Z,28.74
2018-05-12T15:51:50.564Z,27.79
2018-05-12T15:54:18.805Z,29.09
2018-05-12T15:56:47.923Z,28.96
2018-05-12T15:59:16.197Z,28.43
2018-05-12T16:01:44.492Z,28.78
2018-05-12T16:04:12.756Z,28.06
2018-05-12T16:06:41.038Z,29.28
2018-05-12T16:09:09.308Z,29.13
2018-05-12T16:11:37.576Z,29.59
2018-05-12T16:14:05.852Z,28.89
2018-05-12T16:16:34.104Z,31.27
2018-05-12T16:19:03.151Z,31.99
2018-05-12T16:21:31.416Z,29.96
2018-05-12T16:23:59.685Z,30.13
2018-05-12T16:26:27.944Z,30.20
2018-05-12T16:28:57.062Z,29.80
2018-05-12T16:31:25.368Z,30.03
2018-05-12T16:33:53.613Z,31.91
2018-05-12T16:36:21.873Z,31.24
2018-05-12T16:38:50.123Z,32.26
2018-05-12T16:41:18.383Z,30.15
2018-05-12T16:43:46.718Z,33.52
2018-05-12T16:46:14.964Z,31.54
2018-05-12T16:48:44.081Z,31.79
2018-05-12T16:51:12.443Z,32.10
2018-05-12T16:53:41.361Z,30.14
2018-05-12T16:56:09.603Z,30.41
2018-05-12T16:58:38.636Z,30.52
2018-05-12T17:01:06.886Z,31.02
2018-05-12T17:03:37.146Z,31.60
2018-05-12T17:06:05.502Z,31.36
2018-05-12T17:08:33.776Z,31.46
2018-05-12T17:11:02.024Z,32.01
2018-05-12T17:13:31.054Z,32.04
2018-05-12T17:15:59.304Z,32.24
2018-05-12T17:18:28.413Z,33.68
2018-05-12T17:20:56.681Z,33.96
2018-05-12T17:23:24.948Z,33.42
2018-05-12T17:25:53.969Z,33.90
2018-05-12T17:28:22.249Z,35.95
2018-05-12T17:30:50.534Z,35.16
2018-05-12T17:33:18.801Z,34.53
2018-05-12T17:35:47.163Z,35.38
2018-05-12T17:38:15.413Z,35.25
2018-05-12T17:40:43.730Z,36.72
2018-05-12T17:43:12.100Z,37.01
2018-05-12T17:45:40.357Z,37.58
2018-05-12T17:48:09.369Z,38.12
2018-05-12T17:50:37.634Z,39.75
2018-05-12T17:53:06.740Z,41.38
2018-05-12T17:55:35.054Z,41.48
2018-05-12T17:58:04.108Z,41.23
2018-05-12T18:00:32.372Z,41.37
2018-05-12T18:03:01.388Z,42.68
2018-05-12T18:05:29.663Z,41.65
2018-05-12T18:07:57.910Z,42.22
2018-05-12T18:10:27.031Z,42.71
2018-05-12T18:12:55.309Z,44.02
2018-05-12T18:15:23.560Z,44.76
2018-05-12T18:17:52.585Z,45.71
2018-05-12T18:20:20.851Z,46.27
2018-05-12T18:22:49.865Z,47.21
2018-05-12T18:25:18.116Z,48.05
2018-05-12T18:27:46.385Z,47.89
2018-05-12T18:30:15.493Z,48.71
2018-05-12T18:32:43.771Z,48.95
2018-05-12T18:35:12.788Z,49.71
2018-05-12T18:37:41.061Z,50.20
2018-05-12T18:40:09.327Z,51.04
2018-05-12T18:42:37.590Z,51.15
2018-05-12T18:45:05.833Z,51.74
2018-05-12T18:47:34.145Z,52.41
2018-05-12T18:50:02.417Z,52.62
2018-05-12T18:52:30.668Z,53.51
2018-05-12T18:54:59.694Z,53.85
2018-05-12T18:57:27.953Z,54.47
2018-05-12T18:59:57.053Z,55.08
2018-05-12T19:02:25.234Z,55.57
2018-05-12T19:04:53.618Z,56.06
2018-05-12T19:07:21.889Z,56.28
2018-05-12T19:09:50.149Z,56.80
2018-05-12T19:12:19.177Z,56.82
2018-05-12T19:14:47.441Z,57.46
2018-05-12T19:17:15.702Z,57.85
2018-05-12T19:19:44.814Z,58.15
2018-05-12T19:22:13.064Z,58.56
2018-05-12T19:24:42.077Z,59.34
2018-05-12T19:27:10.341Z,59.50
2018-05-12T19:29:39.392Z,59.82
2018-05-12T19:32:07.654Z,60.54
2018-05-12T19:34:36.028Z,60.79
2018-05-12T19:37:04.334Z,60.70
2018-05-12T19:39:32.701Z,60.58
2018-05-12T19:42:01.001Z,61.17
2018-05-12T19:44:29.296Z,61.55
2018-05-12T19:46:58.308Z,61.45
2018-05-12T19:49:26.679Z,60.37
2018-05-12T19:51:55.142Z,60.81
2018-05-12T19:54:23.804Z,61.13
2018-05-12T19:56:53.276Z,61.62
2018-05-12T19:59:21.944Z,61.86
2018-05-12T20:01:50.273Z,62.76
2018-05-12T20:04:18.549Z,63.20
2018-05-12T20:06:46.826Z,63.48
2018-05-12T20:09:15.089Z,64.31
2018-05-12T20:11:43.442Z,65.28
2018-05-12T20:14:11.802Z,66.44
2018-05-12T20:16:40.103Z,65.51
2018-05-12T20:19:08.494Z,65.69
2018-05-12T20:21:36.765Z,65.64
2018-05-12T20:24:05.106Z,65.67
2018-05-12T20:26:33.523Z,65.47
2018-05-12T20:29:01.987Z,65.34
2018-05-12T20:31:30.330Z,65.32
2018-05-12T20:33:59.545Z,65.82
2018-05-12T20:36:27.849Z,65.88
2018-05-12T20:38:56.221Z,65.93
2018-05-12T20:41:24.585Z,65.36
2018-05-12T20:43:52.864Z,65.45
2018-05-12T20:46:21.233Z,66.42
2018-05-12T20:48:49.571Z,66.62
2018-05-12T20:51:17.898Z,66.49
2018-05-12T20:53:46.258Z,66.42
2018-05-12T20:56:14.694Z,66.77
2018-05-12T20:58:43.005Z,66.50
2018-05-12T21:01:12.099Z,66.20
2018-05-12T21:03:41.177Z,67.08
2018-05-12T21:06:09.432Z,66.87
2018-05-12T21:08:37.725Z,67.21
2018-05-12T21:11:05.997Z,67.53
2018-05-12T21:13:34.329Z,67.43
2018-05-12T21:16:02.620Z,68.49
2018-05-12T21:18:30.892Z,68.34
2018-05-12T21:20:59.176Z,68.11
2018-05-12T21:23:27.457Z,67.55
2018-05-12T21:25:55.734Z,68.45
2018-05-12T21:28:24.085Z,68.47
2018-05-12T21:30:53.321Z,68.83
2018-05-12T21:33:21.666Z,68.89
2018-05-12T21:35:49.928Z,69.43
2018-05-12T21:38:18.177Z,69.50
2018-05-12T21:40:46.495Z,69.92
2018-05-12T21:43:14.743Z,69.98
2018-05-12T21:45:43.761Z,70.17
2018-05-12T21:48:12.049Z,71.55
2018-05-12T21:50:40.303Z,71.66
2018-05-12T21:53:09.411Z,72.15
2018-05-12T21:55:37.680Z,71.88
2018-05-12T21:58:05.946Z,72.72
2018-05-12T22:00:35.062Z,74.11
2018-05-12T22:03:03.332Z,73.44
2018-05-12T22:05:31.590Z,72.99
2018-05-12T22:08:00.813Z,72.93
2018-05-12T22:10:29.087Z,72.85
2018-05-12T22:12:57.361Z,72.56
2018-05-12T22:15:25.625Z,72.74
2018-05-12T22:17:54.652Z,72.65
2018-05-12T22:20:23.010Z,72.54
2018-05-12T22:22:51.281Z,72.81
2018-05-12T22:25:19.557Z,72.96
2018-05-12T22:27:47.837Z,72.86
2018-05-12T22:30:16.123Z,72.75
2018-05-12T22:32:44.377Z,72.91
2018-05-12T22:35:13.401Z,72.92
2018-05-12T22:37:41.657Z,73.33
2018-05-12T22:40:09.966Z,73.38
2018-05-12T22:42:38.219Z,73.43
2018-05-12T22:45:06.496Z,73.60
2018-05-12T22:47:34.768Z,73.66
2018-05-12T22:50:03.048Z,74.07
2018-05-12T22:52:31.326Z,75.91
2018-05-12T22:54:59.588Z,75.78
2018-05-12T22:57:27.832Z,77.33
2018-05-12T22:59:56.086Z,76.76
2018-05-12T23:02:24.437Z,76.11
2018-05-12T23:04:52.701Z,76.78
2018-05-12T23:07:20.949Z,76.83
2018-05-12T23:09:49.984Z,77.28
2018-05-12T23:12:18.360Z,78.15
2018-05-12T23:14:46.600Z,78.08
2018-05-12T23:17:15.716Z,77.84
2018-05-12T23:19:43.976Z,78.20
2018-05-12T23:22:12.998Z,78.25
2018-05-12T23:24:41.272Z,78.85
2018-05-12T23:27:09.545Z,78.35
2018-05-12T23:29:37.802Z,78.08
2018-05-12T23:32:06.841Z,78.12
2018-05-12T23:34:35.200Z,78.56
2018-05-12T23:37:03.457Z,78.30
2018-05-12T23:39:32.163Z,79.29
2018-05-12T23:42:00.412Z,80.31
2018-05-12T23:44:29.428Z,80.33
2018-05-12T23:46:57.687Z,80.44
2018-05-12T23:49:25.988Z,81.49
2018-05-12T23:51:54.237Z,81.65
2018-05-12T23:54:23.278Z,81.14
2018-05-12T23:56:51.622Z,81.19
2018-05-12T23:59:19.877Z,81.26
